IMK - Bhop Stats - Record Database

medkit Records (1,049)

Run ID SteamID Name Map Style / Track Time Jumps Strafes Sync Points Date (YYYY-MM-DD)
41490 300120614 medkit bhop_blackrockshooter_csgo_b1 Normal / Main 01:35.148m 124 232 90.00% 134.10 2019-10-26 06:44:54
41493 300120614 medkit bhop_atom Normal / Bonus 9.930s 14 31 90.32% 17.03 2019-10-26 07:06:07
41492 300120614 medkit bhop_atom Normal / Main 21.844s 30 74 90.02% 69.22 2019-10-26 07:08:31
41503 300120614 medkit bhop_atom Low FOV / Main 28.594s 39 77 90.43% 0.00 2019-10-26 07:10:47
41504 300120614 medkit bhop_suitsuke Normal / Main 53.039s 66 97 92.63% 173.22 2019-10-26 07:17:59
41508 300120614 medkit bhop_mp_stairs_hq_csgo_b1 Sideways / Main 14.500s 17 40 90.33% 71.45 2019-10-26 07:23:27
41506 300120614 medkit bhop_mp_stairs_hq_csgo_b1 Normal / Main 11.867s 14 50 88.49% 69.80 2019-10-26 07:29:44
41513 300120614 medkit bhop_mp_stairs_hq_csgo_b1 Low FOV / Main 13.336s 16 55 90.09% 0.00 2019-10-26 07:31:47
41515 300120614 medkit bhop_mp_stairs_hq_csgo_b1 Slow Motion / Main 10.492s 12 77 86.57% 31.94 2019-10-26 07:35:25
41517 300120614 medkit bhop_mp_stairs_hq_csgo_b1 Low Gravity / Main 12.375s 7 49 86.71% 33.71 2019-10-26 07:40:14
41521 300120614 medkit bhop_challenjour_v2 Normal / Bonus 18.164s 14 36 91.01% 9.96 2019-10-26 08:11:12
41792 300120614 medkit bhop_speedrun_suka48 Normal / Main 25.961s 35 76 92.35% 137.89 2019-10-29 11:07:43
41796 300120614 medkit bhop_speedrun_suka48 Sideways / Main 01:01.344m 79 155 92.82% 154.09 2019-10-29 11:09:11
42026 300120614 medkit bhop_icecapades Normal / Main 32.203s 37 70 93.70% 69.76 2019-10-30 23:08:48
42028 300120614 medkit bhop_pacman_csgo Normal / Main 38.578s 52 68 91.59% 137.61 2019-10-30 23:13:38
42030 300120614 medkit bhop_ultra Normal / Bonus 7.570s 11 27 90.89% 16.90 2019-10-30 23:21:51
42029 300120614 medkit bhop_ultra Normal / Main 28.688s 28 69 91.32% 140.86 2019-10-30 23:33:22
42031 300120614 medkit bhop_absolutely_foolish Normal / Main 01:24.648m 111 162 93.79% 152.39 2019-10-30 23:50:29
42688 300120614 medkit bhop_durso Normal / Main 10.852s 17 22 93.10% 69.56 2019-11-03 01:18:25
42699 300120614 medkit bhop_horseshit_2_rg1 Normal / Main 10.875s 15 26 93.58% 55.45 2019-11-03 01:53:27
42700 300120614 medkit bhop_horseshit_2_rg1 Sideways / Main 16.172s 22 42 91.29% 76.08 2019-11-03 01:54:21
42701 300120614 medkit bhop_horseshit_2_rg1 Low Gravity / Main 8.273s 5 25 89.55% 37.67 2019-11-03 02:08:16
42703 300120614 medkit bhop_strafe_strafe Normal / Main 42.695s 54 95 91.99% 70.18 2019-11-03 02:20:45
42705 300120614 medkit bhop_strafe_strafe Low Gravity / Main 40.930s 25 103 91.05% 37.60 2019-11-03 02:27:20
42706 300120614 medkit bhop_vulcan Normal / Main 28.859s 39 57 91.61% 53.91 2019-11-03 02:35:21
42935 300120614 medkit bhop_paskamappi Normal / Main 32.172s 46 73 93.28% 57.31 2019-11-04 01:37:08
42936 300120614 medkit bhop_paskamappi Low Gravity / Main 23.898s 16 65 90.36% 34.42 2019-11-04 01:53:35
42965 300120614 medkit bhop_uc_minecraft_beta2_csgo Normal / Main 02:29.656m 115 182 86.00% 110.99 2019-11-04 03:53:12
42966 300120614 medkit bhop_uc_minecraft_beta2_csgo Low Gravity / Main 45.328s 27 118 90.04% 114.01 2019-11-04 04:01:03
42968 300120614 medkit bhop_drip Normal / Main 56.883s 76 98 92.70% 123.48 2019-11-04 04:15:02
42967 300120614 medkit bhop_drip Low Gravity / Main 43.242s 29 97 92.39% 74.23 2019-11-04 04:17:30
42976 300120614 medkit bhop_belkapeace Low FOV / Main 36.156s 48 91 92.05% 0.00 2019-11-04 04:27:17
42978 300120614 medkit bhop_belkapeace Sideways / Main 30.211s 42 85 92.36% 77.01 2019-11-04 04:32:43
42969 300120614 medkit bhop_belkapeace Normal / Main 21.672s 30 76 91.63% 66.25 2019-11-04 04:36:12
43154 300120614 medkit bhop_fyushion Normal / Main 02:11.695m 158 246 90.77% 42.02 2019-11-05 02:28:43
43155 300120614 medkit bhop_fyushion Normal / Bonus 16.109s 22 50 91.56% 11.28 2019-11-05 02:29:27
43162 300120614 medkit bhop_easy_csgo Low Gravity / Main 12.977s 10 36 87.21% 61.52 2019-11-05 02:46:19
43164 300120614 medkit bhop_004_grayrun_v2 Normal / Main 50.422s 26 92 91.25% 132.92 2019-11-05 03:10:08
43167 300120614 medkit bhop_nyrobs Normal / Main 22.141s 34 48 92.52% 94.74 2019-11-05 03:23:39
43172 300120614 medkit bhop_nyrobs Low Gravity / Main 11.461s 10 37 89.97% 75.02 2019-11-05 03:28:23
43440 300120614 medkit bhop_opl Normal / Bonus 35.109s 44 88 91.43% 18.14 2019-11-06 15:31:32
43446 300120614 medkit bhop_pillar Normal / Main 35.859s 48 70 92.56% 178.94 2019-11-06 15:49:07
43449 300120614 medkit bhop_dusttemple_beta Normal / Main 14.273s 19 50 84.45% 64.02 2019-11-06 16:00:39
44100 300120614 medkit bhop_matans Normal / Main 27.063s 33 90 90.62% 131.08 2019-11-10 01:45:27
44102 300120614 medkit bhop_matans Low Gravity / Main 27.711s 17 95 90.63% 71.25 2019-11-10 01:47:13
44104 300120614 medkit bhop_zyper Low Gravity / Bonus 1.648s 2 10 70.85% 8.68 2019-11-10 01:54:42
44107 300120614 medkit bhop_zyper Normal / Bonus 1.602s 3 8 76.31% 17.13 2019-11-10 01:55:27
44110 300120614 medkit bhop_zyper Normal / Main 01:37.547m 119 165 93.29% 171.87 2019-11-10 01:58:21
44113 300120614 medkit bhop_zyper Low Gravity / Main 29.266s 17 85 91.39% 111.77 2019-11-10 02:06:58
44118 300120614 medkit bhop_fur_fix Normal / Main 07:05.844m 532 805 92.84% 149.79 2019-11-10 02:23:54
44559 300120614 medkit bhop_construct Normal / Main 28.328s 37 47 92.22% 49.40 2019-11-12 07:59:46
44561 300120614 medkit bhop_construct Sideways / Main 02:16.812m 146 277 90.81% 84.12 2019-11-12 08:06:30
44563 300120614 medkit bhop_kuiva Normal / Main 14.063s 20 45 90.85% 52.75 2019-11-12 08:15:11
44570 300120614 medkit bhop_kuiva Half-Sideways / Main 19.984s 27 34 97.12% 62.14 2019-11-12 08:17:12
44569 300120614 medkit bhop_kuiva Sideways / Main 21.938s 30 56 93.79% 72.91 2019-11-12 08:21:58
44574 300120614 medkit bhop_kuiva Low Gravity / Main 9.883s 7 21 88.98% 32.14 2019-11-12 08:29:32
45614 300120614 medkit bhop_seiz Normal / Main 46.523s 60 98 91.37% 121.18 2019-11-17 04:43:42
45616 300120614 medkit bhop_seiz Low Gravity / Main 45.703s 30 118 90.35% 76.52 2019-11-17 04:53:18
46399 300120614 medkit bhop_primal Low Gravity / Main 35.922s 21 73 92.77% 54.98 2019-11-21 10:36:58
46400 300120614 medkit bhop_primal Normal / Main 56.969s 69 105 91.61% 79.03 2019-11-21 10:45:34
46826 300120614 medkit bhop_aow_whiteout Normal / Main 29.891s 41 56 93.40% 66.42 2019-11-24 03:27:29
46827 300120614 medkit bhop_aow_whiteout Low Gravity / Main 27.383s 19 75 91.01% 35.62 2019-11-24 03:32:47
46829 300120614 medkit bhop_aow_whiteout Slow Motion / Main 24.000s 33 101 92.84% 37.56 2019-11-24 03:34:40
46831 300120614 medkit bhop_aow_whiteout Sideways / Main 01:00.438m 78 111 94.95% 79.03 2019-11-24 03:38:40
46833 300120614 medkit bhop_aow_whiteout Fast Forward / Main 32.242s 54 61 89.58% 0.00 2019-11-24 03:41:02
46838 300120614 medkit bhop_timerenthusiast_rg1 Normal / Main 13.219s 18 32 91.64% 67.50 2019-11-24 03:45:21
46836 300120614 medkit bhop_timerenthusiast_rg1 Fast Forward / Main 7.008s 13 14 93.20% 0.00 2019-11-24 03:48:19
46843 300120614 medkit bhop_masket Low Gravity / Main 12.531s 11 41 89.62% 34.12 2019-11-24 03:56:42
47232 300120614 medkit bhop_clowntown_csgo Fast Forward / Bonus 1.797s 4 6 92.00% 0.00 2019-11-25 12:35:37
47234 300120614 medkit bhop_clowntown_csgo Sideways / Bonus 3.359s 5 10 90.90% 16.70 2019-11-25 12:36:11
48758 300120614 medkit bhop_easyhop_cozyedition Normal / Main 13.484s 18 37 91.18% 67.63 2019-12-03 01:36:25
48760 300120614 medkit bhop_orgrimmar Normal / Main 01:01.820m 84 113 92.64% 65.87 2019-12-03 01:43:48
48761 300120614 medkit bhop_hi_im_sozu_first_fixx Normal / Main 29.102s 36 49 94.32% 64.75 2019-12-03 01:49:42
49656 300120614 medkit bhop_aurum Normal / Bonus 14.195s 19 42 91.65% 15.97 2019-12-06 23:44:37
49659 300120614 medkit bhop_aurum Low Gravity / Main 35.828s 20 72 90.89% 101.43 2019-12-06 23:48:53
49655 300120614 medkit bhop_aurum Normal / Main 35.609s 41 70 93.70% 227.37 2019-12-06 23:56:40
49661 300120614 medkit bhop_aurum Low Gravity / Bonus 12.828s 9 50 83.52% 9.25 2019-12-06 23:59:40
49662 300120614 medkit bhop_internetclub Low Gravity / Main 52.000s 33 146 89.93% 58.85 2019-12-07 00:02:53
49665 300120614 medkit bhop_booty Normal / Main 04:21.633m 345 410 93.37% 135.40 2019-12-07 00:10:04
49772 300120614 medkit bhop_yulo Normal / Main 17.648s 23 47 90.98% 65.48 2019-12-07 03:20:55
49774 300120614 medkit bhop_yulo Low Gravity / Main 18.133s 12 48 91.58% 35.02 2019-12-07 03:22:05
49778 300120614 medkit bhop_believe Normal / Main 01:29.461m 107 139 92.16% 57.04 2019-12-07 03:27:43
49780 300120614 medkit bhop_believe Low Gravity / Main 01:21.195m 47 230 92.80% 37.14 2019-12-07 03:45:17
49793 300120614 medkit bhop_fast Normal / Main 29.406s 40 77 88.92% 151.96 2019-12-07 03:59:53
49799 300120614 medkit bhop_crates-cartes-crates-b1 Low Gravity / Main 40.422s 27 95 90.72% 76.35 2019-12-07 04:27:30
50047 300120614 medkit bhop_awful2c_csgo Normal / Main 49.352s 62 98 91.63% 153.29 2019-12-07 23:45:55
50048 300120614 medkit bhop_awful2c_csgo Low Gravity / Main 45.297s 27 81 92.68% 76.51 2019-12-08 00:02:47
50050 300120614 medkit bhop_ultimatum Low Gravity / Main 14.039s 11 44 90.40% 73.48 2019-12-08 00:18:32
50052 300120614 medkit bhop_speedrun_lyned2 Normal / Main 23.297s 32 56 93.36% 64.02 2019-12-08 00:22:15
50051 300120614 medkit bhop_speedrun_lyned2 Low Gravity / Main 20.609s 14 66 92.51% 36.70 2019-12-08 00:23:57
50240 300120614 medkit bhop_soaatana_csgo Low Gravity / Main 37.570s 25 95 90.86% 65.33 2019-12-08 07:53:22
50241 300120614 medkit bhop_soaatana_csgo Normal / Main 50.641s 67 107 92.72% 129.71 2019-12-08 08:04:44
50246 300120614 medkit bhop_at_night_csgo_fix Normal / Main 14.180s 18 41 90.66% 67.27 2019-12-08 08:15:31
50247 300120614 medkit bhop_at_night_csgo_fix Low Gravity / Main 6.844s 4 21 89.86% 35.43 2019-12-08 08:18:01
50250 300120614 medkit bhop_at_night_csgo_fix Sideways / Main 25.078s 32 62 90.87% 76.67 2019-12-08 08:22:31
50251 300120614 medkit bhop_at_night_csgo_fix Fast Forward / Main 9.180s 16 23 90.05% 0.00 2019-12-08 08:25:22
50256 300120614 medkit bhop_at_night_csgo_fix Slow Motion / Main 11.117s 14 67 91.62% 36.41 2019-12-08 08:28:43
50257 300120614 medkit bhop_at_night_csgo_fix Low FOV / Main 16.672s 21 36 94.11% 0.00 2019-12-08 08:30:34
50265 300120614 medkit bhop_hns_concept Slow Motion / Main 4.891s 7 29 90.05% 37.66 2019-12-08 08:38:09
50260 300120614 medkit bhop_hns_concept Normal / Main 6.320s 9 20 91.42% 70.08 2019-12-08 08:43:47